createdAt,value
2023-02-11T00:03:45.405Z,8.15
2023-02-11T00:08:48.202Z,7.51
2023-02-11T00:13:51.091Z,5.34
2023-02-11T00:18:54.079Z,5.88
2023-02-11T00:23:59.483Z,7.35
2023-02-11T00:29:03.828Z,7.41
2023-02-11T00:34:06.320Z,7.89
2023-02-11T00:39:09.288Z,7.82
2023-02-11T00:44:11.755Z,6.61
2023-02-11T00:49:14.376Z,7.56
2023-02-11T00:54:16.878Z,7.97
2023-02-11T00:59:19.344Z,8.31
2023-02-11T01:04:21.880Z,6.80
2023-02-11T01:09:24.417Z,5.71
2023-02-11T01:14:26.903Z,6.97
2023-02-11T01:19:29.448Z,7.47
2023-02-11T01:24:32.511Z,7.74
2023-02-11T01:29:34.974Z,7.74
2023-02-11T01:34:37.482Z,8.00
2023-02-11T01:39:39.987Z,7.01
2023-02-11T01:44:42.558Z,6.10
2023-02-11T01:49:49.357Z,7.31
2023-02-11T01:55:05.208Z,7.72
2023-02-11T02:00:09.717Z,7.92
2023-02-11T02:05:15.076Z,7.61
2023-02-11T02:10:21.241Z,7.95
2023-02-11T02:15:23.722Z,6.51
2023-02-11T02:20:29.186Z,5.67
2023-02-11T02:25:48.049Z,6.69
2023-02-11T02:31:06.706Z,7.26
2023-02-11T02:36:18.332Z,7.97
2023-02-11T02:41:31.533Z,7.12
2023-02-11T02:46:35.760Z,5.73
2023-02-11T02:51:41.188Z,6.88
2023-02-11T02:56:47.549Z,7.62
2023-02-11T03:01:52.792Z,7.64
2023-02-11T03:07:02.968Z,7.50
2023-02-11T03:12:07.642Z,5.98
2023-02-11T03:17:10.571Z,7.11
2023-02-11T03:22:27.357Z,7.66
2023-02-11T03:27:38.727Z,6.37
2023-02-11T03:32:49.116Z,6.34
2023-02-11T03:37:57.531Z,7.11
2023-02-11T03:43:06.994Z,7.45
2023-02-11T03:48:14.771Z,5.91
2023-02-11T03:53:20.506Z,6.26
2023-02-11T03:58:23.038Z,7.28
2023-02-11T04:03:25.552Z,7.47
2023-02-11T04:08:28.081Z,6.47
2023-02-11T04:13:30.600Z,6.30
2023-02-11T04:18:33.125Z,7.19
2023-02-11T04:23:35.685Z,7.42
2023-02-11T04:28:38.332Z,6.99
2023-02-11T04:33:40.832Z,5.54
2023-02-11T04:38:47.922Z,6.97
2023-02-11T04:43:50.394Z,7.56
2023-02-11T04:48:52.871Z,7.21
2023-02-11T04:53:55.352Z,6.14
2023-02-11T04:58:58.093Z,7.38
2023-02-11T05:04:00.859Z,6.86
2023-02-11T05:09:03.432Z,6.49
2023-02-11T05:14:06.844Z,7.44
2023-02-11T05:19:09.328Z,7.45
2023-02-11T05:24:11.825Z,8.02
2023-02-11T05:29:14.408Z,7.28
2023-02-11T05:34:16.907Z,5.73
2023-02-11T05:39:19.399Z,6.95
2023-02-11T05:44:21.945Z,7.14
2023-02-11T05:49:24.451Z,7.96
2023-02-11T05:54:27.010Z,7.64
2023-02-11T05:59:29.804Z,5.97
2023-02-11T06:04:32.313Z,6.96
2023-02-11T06:09:34.909Z,7.73
2023-02-11T06:14:37.414Z,7.57
2023-02-11T06:19:42.286Z,6.14
2023-02-11T06:25:00.247Z,7.25
2023-02-11T06:30:05.540Z,7.70
2023-02-11T06:35:10.765Z,7.82
2023-02-11T06:40:16.682Z,7.95
2023-02-11T06:45:20.441Z,7.71
2023-02-11T06:50:22.995Z,8.07
2023-02-11T06:55:26.112Z,8.12
2023-02-11T07:00:29.485Z,7.95
2023-02-11T07:05:34.037Z,7.94
2023-02-11T07:10:36.947Z,7.92
2023-02-11T07:15:39.469Z,8.16
2023-02-11T07:20:42.087Z,8.22
2023-02-11T07:25:44.593Z,8.14
2023-02-11T07:30:47.190Z,7.99
2023-02-11T07:35:50.183Z,8.05
2023-02-11T07:40:52.953Z,7.75
2023-02-11T07:45:55.425Z,7.91
2023-02-11T07:51:15.122Z,8.02
2023-02-11T07:56:19.166Z,7.70
2023-02-11T08:01:26.964Z,7.85
2023-02-11T08:06:33.080Z,7.58
2023-02-11T08:11:35.679Z,7.77
2023-02-11T08:16:39.821Z,7.86
2023-02-11T08:21:42.698Z,8.20
2023-02-11T08:26:45.254Z,8.15
2023-02-11T08:31:48.330Z,7.97
2023-02-11T08:36:50.851Z,8.15
2023-02-11T08:41:56.389Z,8.21
2023-02-11T08:46:58.946Z,8.27
2023-02-11T08:52:04.013Z,8.17
2023-02-11T08:57:06.483Z,8.51
2023-02-11T09:02:13.030Z,8.02
2023-02-11T09:07:15.553Z,8.43
2023-02-11T09:12:18.029Z,8.45
2023-02-11T09:17:20.489Z,8.60
2023-02-11T09:22:22.949Z,8.52
2023-02-11T09:27:25.476Z,8.31
2023-02-11T09:32:27.968Z,8.21
2023-02-11T09:37:30.424Z,8.55
2023-02-11T09:42:38.025Z,8.85
2023-02-11T09:47:48.098Z,8.87
2023-02-11T09:52:55.518Z,9.05
2023-02-11T09:57:58.360Z,9.02
2023-02-11T10:03:12.709Z,9.10
2023-02-11T10:08:23.566Z,9.12
2023-02-11T10:13:29.012Z,9.24
2023-02-11T10:18:42.600Z,9.29
2023-02-11T10:23:49.372Z,9.74
2023-02-11T10:28:54.904Z,9.65
2023-02-11T10:34:03.430Z,9.34
2023-02-11T10:39:16.370Z,9.31
2023-02-11T10:44:24.509Z,9.72
2023-02-11T10:49:32.797Z,9.65
2023-02-11T10:54:35.269Z,9.54
2023-02-11T10:59:40.086Z,9.74
2023-02-11T11:04:45.112Z,9.75
2023-02-11T11:09:52.333Z,9.33
2023-02-11T11:15:00.832Z,9.47
2023-02-11T11:20:09.151Z,9.67
2023-02-11T11:25:17.428Z,9.90
2023-02-11T11:30:20.711Z,9.52
2023-02-11T11:35:28.243Z,9.57
2023-02-11T11:40:33.470Z,9.42
2023-02-11T11:45:35.957Z,9.49
2023-02-11T11:50:44.892Z,9.17
2023-02-11T11:55:58.613Z,9.19
2023-02-11T12:01:07.920Z,9.58
2023-02-11T12:06:21.403Z,9.71
2023-02-11T12:11:34.152Z,9.91
2023-02-11T12:16:52.885Z,9.95
2023-02-11T12:22:06.281Z,10.06
2023-02-11T12:27:18.861Z,10.04
2023-02-11T12:32:36.337Z,9.98
2023-02-11T12:37:41.907Z,9.69
2023-02-11T12:42:50.160Z,9.99
2023-02-11T12:47:55.600Z,10.02
2023-02-11T12:53:02.957Z,9.94
2023-02-11T12:58:14.877Z,10.31
2023-02-11T13:03:24.284Z,10.51
2023-02-11T13:08:32.770Z,10.58
2023-02-11T13:13:46.778Z,10.44
2023-02-11T13:19:00.917Z,10.54
2023-02-11T13:24:08.302Z,10.68
2023-02-11T13:29:17.921Z,10.73
2023-02-11T13:34:25.337Z,10.43
2023-02-11T13:39:27.816Z,10.93
2023-02-11T13:44:34.240Z,11.17
2023-02-11T13:49:41.022Z,11.57
2023-02-11T13:54:49.292Z,11.48
2023-02-11T13:59:54.633Z,11.88
2023-02-11T14:05:05.856Z,11.90
2023-02-11T14:10:31.436Z,12.12
2023-02-11T14:15:39.656Z,11.87
2023-02-11T14:20:43.946Z,12.08
2023-02-11T14:25:58.188Z,11.75
2023-02-11T14:31:10.065Z,12.12
2023-02-11T14:36:16.554Z,11.68
2023-02-11T14:41:24.912Z,11.69
2023-02-11T14:46:30.709Z,12.02
2023-02-11T14:51:39.671Z,12.33
2023-02-11T14:56:42.687Z,12.01
2023-02-11T15:01:50.153Z,11.80
2023-02-11T15:06:57.304Z,12.22
2023-02-11T15:12:00.095Z,12.22
2023-02-11T15:17:05.921Z,12.28
2023-02-11T15:22:19.936Z,12.37
2023-02-11T15:27:25.573Z,12.25
2023-02-11T15:32:28.642Z,12.22
2023-02-11T15:37:31.292Z,12.04
2023-02-11T15:42:47.187Z,12.23
2023-02-11T15:47:59.246Z,11.87
2023-02-11T15:53:21.866Z,12.09
2023-02-11T15:58:24.536Z,12.08
2023-02-11T16:03:32.408Z,12.12
2023-02-11T16:08:36.728Z,12.11
2023-02-11T16:13:44.914Z,12.22
2023-02-11T16:19:04.971Z,12.15
2023-02-11T16:24:18.089Z,12.16
2023-02-11T16:29:26.205Z,12.22
2023-02-11T16:34:28.673Z,12.12
2023-02-11T16:39:31.259Z,12.02
2023-02-11T16:44:34.298Z,11.98
2023-02-11T16:49:40.415Z,11.84
2023-02-11T16:54:42.940Z,11.73
2023-02-11T16:59:45.779Z,11.60
2023-02-11T17:04:48.819Z,11.72
2023-02-11T17:09:52.712Z,11.73
2023-02-11T17:14:55.192Z,11.90
2023-02-11T17:19:57.689Z,11.96
2023-02-11T17:25:00.169Z,11.77
2023-02-11T17:30:02.792Z,11.80
2023-02-11T17:35:07.216Z,11.78
2023-02-11T17:40:10.782Z,11.63
2023-02-11T17:45:13.712Z,10.12
2023-02-11T17:50:16.495Z,9.48
2023-02-11T17:55:18.987Z,10.22
2023-02-11T18:00:22.427Z,10.35
2023-02-11T18:05:27.195Z,8.72
2023-02-11T18:10:29.817Z,9.27
2023-02-11T18:15:33.525Z,9.94
2023-02-11T18:20:36.171Z,9.48
2023-02-11T18:25:42.135Z,7.79
2023-02-11T18:30:45.319Z,8.80
2023-02-11T18:35:49.030Z,6.99
2023-02-11T18:40:52.358Z,7.76
2023-02-11T18:45:55.208Z,8.60
2023-02-11T18:51:00.202Z,8.96
2023-02-11T18:56:08.784Z,8.25
2023-02-11T19:01:15.588Z,6.68
2023-02-11T19:06:21.630Z,7.96
2023-02-11T19:11:44.176Z,8.18
2023-02-11T19:16:47.478Z,7.57
2023-02-11T19:21:50.410Z,6.66
2023-02-11T19:26:56.818Z,8.06
2023-02-11T19:31:59.307Z,7.33
2023-02-11T19:37:04.039Z,6.39
2023-02-11T19:42:06.808Z,7.59
2023-02-11T19:47:10.391Z,7.25
2023-02-11T19:52:12.883Z,5.94
2023-02-11T19:57:15.453Z,7.37
2023-02-11T20:02:18.546Z,7.26
2023-02-11T20:07:21.157Z,5.68
2023-02-11T20:12:25.914Z,7.28
2023-02-11T20:17:28.406Z,8.01
2023-02-11T20:22:30.907Z,6.17
2023-02-11T20:27:33.515Z,6.44
2023-02-11T20:32:38.451Z,7.87
2023-02-11T20:37:43.950Z,6.15
2023-02-11T20:42:46.730Z,6.97
2023-02-11T20:47:49.219Z,7.98
2023-02-11T20:52:51.705Z,6.42
2023-02-11T20:57:54.267Z,6.14
2023-02-11T21:02:56.939Z,7.50
2023-02-11T21:07:59.480Z,6.35
2023-02-11T21:13:02.824Z,6.31
2023-02-11T21:18:05.377Z,7.69
2023-02-11T21:23:07.838Z,6.17
2023-02-11T21:28:10.404Z,5.69
2023-02-11T21:33:12.983Z,7.36
2023-02-11T21:38:16.119Z,7.20
2023-02-11T21:43:19.428Z,5.55
2023-02-11T21:48:23.706Z,6.97
2023-02-11T21:53:26.183Z,7.87
2023-02-11T21:58:28.643Z,7.59
2023-02-11T22:03:31.128Z,5.72
2023-02-11T22:08:33.698Z,7.10
2023-02-11T22:13:36.404Z,8.16
2023-02-11T22:18:39.674Z,6.65
2023-02-11T22:23:42.819Z,6.56
2023-02-11T22:28:46.013Z,8.05
2023-02-11T22:33:49.390Z,6.72
2023-02-11T22:38:52.656Z,6.64
2023-02-11T22:43:55.247Z,8.00
2023-02-11T22:48:57.802Z,7.78
2023-02-11T22:54:03.169Z,5.84
2023-02-11T22:59:07.862Z,7.31
2023-02-11T23:04:13.684Z,8.06
2023-02-11T23:09:16.569Z,6.37
2023-02-11T23:14:19.042Z,6.08
2023-02-11T23:19:21.572Z,7.67
2023-02-11T23:24:24.120Z,6.66
2023-02-11T23:29:26.647Z,5.08
2023-02-11T23:34:29.142Z,6.89
2023-02-11T23:39:31.626Z,6.52
2023-02-11T23:44:34.412Z,4.31
2023-02-11T23:49:37.135Z,5.03
2023-02-11T23:54:39.729Z,6.78
2023-02-11T23:59:43.226Z,5.75
